Time;durP1;ratioP1;P1;durP2;ratioP2;P2;SDS_P1;SDS_P2;PMS_P1;PMS_P2;Temp;Humidity;BMP_temperature;BMP_pressure;BME280_temperature;BME280_humidity;BME280_pressure;Samples;Min_cycle;Max_cycle;Signal;HPM_P1;HPM_P2
2022/11/23 00:00:02;;;;;;;;;;;2.40;99.90;;;;;;2603507;54;19934;31
2022/11/23 00:02:38;;;;;;;;;;;2.30;99.90;;;;;;2603495;54;20747;31
2022/11/23 00:05:14;;;;;;;;;;;2.30;99.90;;;;;;2603354;54;19998;31
2022/11/23 00:07:49;;;;;;;;;;;2.30;99.90;;;;;;2616394;47;19941;31
2022/11/23 00:10:22;;;;;;;;;;;2.30;99.90;;;;;;2604009;54;19934;31
2022/11/23 00:12:58;;;;;;;;;;;2.20;99.90;;;;;;2603721;54;19935;31
2022/11/23 00:15:36;;;;;;;;;;;2.20;99.90;;;;;;2604172;54;21242;31
2022/11/23 00:18:09;;;;;;;;;;;2.20;99.90;;;;;;2603122;54;20695;31
2022/11/23 00:20:45;;;;;;;;;;;2.20;99.90;;;;;;2621976;46;19947;31
2022/11/23 00:23:19;;;;;;;;;;;2.20;99.90;;;;;;2604117;54;19942;31
2022/11/23 00:25:51;;;;;;;;;;;2.20;99.90;;;;;;2604002;54;19957;31
2022/11/23 00:28:27;;;;;;;;;;;2.10;99.90;;;;;;2603803;54;19934;31
2022/11/23 00:31:03;;;;;;;;;;;2.10;99.90;;;;;;2702863;39;20979;31
2022/11/23 00:33:39;;;;;;;;;;;2.10;99.90;;;;;;2604135;54;20766;31
2022/11/23 00:36:18;;;;;;;;;;;2.10;99.90;;;;;;2603911;54;20780;31
2022/11/23 00:38:53;;;;;;;;;;;2.10;99.90;;;;;;2603906;54;19935;31
2022/11/23 00:41:29;;;;;;;;;;;2.10;99.90;;;;;;2622673;46;20746;31
2022/11/23 00:44:03;;;;;;;;;;;2.10;99.90;;;;;;2613754;46;19935;31
2022/11/23 00:46:42;;;;;;;;;;;2.10;99.90;;;;;;2603402;54;20719;31
2022/11/23 00:49:18;;;;;;;;;;;2.00;99.90;;;;;;2622372;46;19942;31
2022/11/23 00:51:55;;;;;;;;;;;2.00;99.90;;;;;;2604040;54;19935;31
2022/11/23 00:54:30;;;;;;;;;;;2.00;99.90;;;;;;2622664;46;19934;31
2022/11/23 00:57:05;;;;;;;;;;;2.00;99.90;;;;;;2603728;54;20775;31
2022/11/23 00:59:39;;;;;;;;;;;2.00;99.90;;;;;;2603814;54;19935;31
2022/11/23 01:02:16;;;;;;;;;;;2.00;99.90;;;;;;2603178;54;19938;31
2022/11/23 01:04:51;;;;;;;;;;;1.90;99.90;;;;;;2616127;46;19943;31
2022/11/23 01:07:29;;;;;;;;;;;2.00;99.90;;;;;;2622503;46;19941;31
2022/11/23 01:10:02;;;;;;;;;;;2.00;99.90;;;;;;2604156;54;19993;31
2022/11/23 01:12:38;;;;;;;;;;;2.00;99.90;;;;;;2622419;46;19946;31
2022/11/23 01:15:12;;;;;;;;;;;2.00;99.90;;;;;;2603619;54;20753;31
2022/11/23 01:17:49;;;;;;;;;;;2.00;99.90;;;;;;2603703;54;19938;31
2022/11/23 01:20:23;;;;;;;;;;;2.00;99.90;;;;;;2603842;54;19935;31
2022/11/23 01:22:58;;;;;;;;;;;2.00;99.90;;;;;;2622485;46;19935;31
2022/11/23 01:25:32;;;;;;;;;;;2.00;99.90;;;;;;2603983;54;19934;31
2022/11/23 01:28:07;;;;;;;;;;;2.00;99.90;;;;;;2604026;54;20692;31
2022/11/23 01:30:40;;;;;;;;;;;1.90;99.90;;;;;;2622229;46;20002;31
2022/11/23 01:33:19;;;;;;;;;;;2.00;99.90;;;;;;2603963;54;19934;31
2022/11/23 01:35:55;;;;;;;;;;;2.00;99.90;;;;;;2603857;54;20769;31
2022/11/23 01:38:29;;;;;;;;;;;2.00;99.90;;;;;;2603955;54;19934;31
2022/11/23 01:41:05;;;;;;;;;;;2.00;99.90;;;;;;2603751;54;19934;31
2022/11/23 01:43:40;;;;;;;;;;;2.00;99.90;;;;;;2622446;46;20009;31
2022/11/23 01:46:14;;;;;;;;;;;2.00;99.90;;;;;;2603755;54;19935;31
2022/11/23 01:48:52;;;;;;;;;;;2.00;99.90;;;;;;2622255;46;19946;31
2022/11/23 01:51:28;;;;;;;;;;;2.00;99.90;;;;;;2603555;54;20707;31
2022/11/23 01:54:03;;;;;;;;;;;2.00;99.90;;;;;;2622248;46;20021;31
2022/11/23 01:56:39;;;;;;;;;;;2.00;99.90;;;;;;2622199;46;19941;31
2022/11/23 01:59:14;;;;;;;;;;;2.00;99.90;;;;;;2603892;54;19941;31
2022/11/23 02:01:48;;;;;;;;;;;2.00;99.90;;;;;;2622451;46;20771;31
2022/11/23 02:04:28;;;;;;;;;;;1.90;99.90;;;;;;2603926;54;20686;31
2022/11/23 02:07:02;;;;;;;;;;;2.00;99.90;;;;;;2622197;46;19934;31
2022/11/23 02:09:37;;;;;;;;;;;1.90;99.90;;;;;;2603945;54;20025;31
2022/11/23 02:12:14;;;;;;;;;;;2.00;99.90;;;;;;2603624;54;19989;31
2022/11/23 02:14:49;;;;;;;;;;;1.90;99.90;;;;;;2603838;54;19941;31
2022/11/23 02:17:25;;;;;;;;;;;2.00;99.90;;;;;;2602899;54;19950;31
2022/11/23 02:20:03;;;;;;;;;;;1.90;99.90;;;;;;2603635;54;19958;31
2022/11/23 02:22:41;;;;;;;;;;;2.00;99.90;;;;;;2603591;54;20767;31
2022/11/23 02:25:18;;;;;;;;;;;2.00;99.90;;;;;;2603759;54;20045;31
2022/11/23 02:27:54;;;;;;;;;;;2.00;99.90;;;;;;2603659;54;20782;31
2022/11/23 02:30:28;;;;;;;;;;;2.00;99.90;;;;;;2603272;54;19935;31
2022/11/23 02:33:05;;;;;;;;;;;2.00;99.90;;;;;;2603536;54;20773;31
2022/11/23 02:35:48;;;;;;;;;;;2.00;99.90;;;;;;2603782;54;19934;31
2022/11/23 02:38:24;;;;;;;;;;;2.00;99.90;;;;;;2621963;46;20758;31
2022/11/23 02:40:59;;;;;;;;;;;2.00;99.90;;;;;;2603573;54;20017;31
2022/11/23 02:43:34;;;;;;;;;;;2.00;99.90;;;;;;2603768;54;20700;31
2022/11/23 02:46:09;;;;;;;;;;;2.00;99.90;;;;;;2622123;46;20009;31
2022/11/23 02:48:43;;;;;;;;;;;2.00;99.90;;;;;;2622024;46;19941;31
2022/11/23 02:51:18;;;;;;;;;;;2.00;99.90;;;;;;2603555;54;19946;31
2022/11/23 02:53:54;;;;;;;;;;;2.00;99.90;;;;;;2603640;54;19934;31
2022/11/23 02:56:27;;;;;;;;;;;2.00;99.90;;;;;;2603289;54;19943;31
2022/11/23 02:59:07;;;;;;;;;;;2.10;99.90;;;;;;2603582;54;19993;31
2022/11/23 03:01:40;;;;;;;;;;;3.00;99.90;;;;;;2622329;46;20009;31
2022/11/23 03:04:16;;;;;;;;;;;2.10;99.90;;;;;;2621788;46;19986;31
2022/11/23 03:06:57;;;;;;;;;;;2.10;99.90;;;;;;2621900;46;19934;31
2022/11/23 03:09:33;;;;;;;;;;;2.10;99.90;;;;;;2603431;54;19934;31
2022/11/23 03:12:08;;;;;;;;;;;2.00;99.90;;;;;;2618680;46;19950;31
2022/11/23 03:14:46;;;;;;;;;;;2.00;99.90;;;;;;2603628;54;19990;31
2022/11/23 03:17:26;;;;;;;;;;;2.00;99.90;;;;;;2603475;54;19935;31
2022/11/23 03:20:01;;;;;;;;;;;2.00;99.90;;;;;;2603595;54;19935;31
2022/11/23 03:22:43;;;;;;;;;;;2.00;99.90;;;;;;2603442;54;19935;31
2022/11/23 03:25:19;;;;;;;;;;;2.00;99.90;;;;;;2603555;54;20751;31
2022/11/23 03:27:56;;;;;;;;;;;2.00;99.90;;;;;;2603353;54;19989;31
2022/11/23 03:30:33;;;;;;;;;;;2.00;99.90;;;;;;2603304;54;20739;31
2022/11/23 03:33:11;;;;;;;;;;;2.00;99.90;;;;;;2603346;54;20722;31
2022/11/23 03:35:46;;;;;;;;;;;2.00;99.90;;;;;;2603310;54;20764;31
2022/11/23 03:38:30;;;;;;;;;;;2.00;99.90;;;;;;2603463;54;19941;31
2022/11/23 03:41:08;;;;;;;;;;;2.00;99.90;;;;;;2621848;46;19939;31
2022/11/23 03:43:54;;;;;;;;;;;2.00;99.90;;;;;;2603280;54;19985;31
2022/11/23 03:46:32;;;;;;;;;;;1.90;99.90;;;;;;2603295;54;19961;31
2022/11/23 03:49:06;;;;;;;;;;;2.00;99.90;;;;;;2603166;54;19993;31
2022/11/23 03:51:39;;;;;;;;;;;1.90;99.90;;;;;;2603285;54;19943;31
2022/11/23 03:54:17;;;;;;;;;;;2.00;99.90;;;;;;2603199;54;20808;31
2022/11/23 03:56:52;;;;;;;;;;;1.90;99.90;;;;;;2603255;54;20733;31
2022/11/23 03:59:28;;;;;;;;;;;1.90;99.90;;;;;;2621903;47;19935;31
2022/11/23 04:02:06;;;;;;;;;;;1.90;99.90;;;;;;2617622;47;19957;31
2022/11/23 04:04:49;;;;;;;;;;;1.90;99.90;;;;;;2603289;54;19945;31
2022/11/23 04:07:49;;;;;;;;;;;1.90;99.90;;;;;;2603346;54;20037;31
2022/11/23 04:10:22;;;;;;;;;;;1.90;99.90;;;;;;2603176;54;19935;31
2022/11/23 04:13:21;;;;;;;;;;;1.90;99.90;;;;;;2621779;47;19981;31
2022/11/23 04:15:55;;;;;;;;;;;1.90;99.90;;;;;;2603219;54;19934;31
2022/11/23 04:18:32;;;;;;;;;;;1.90;99.90;;;;;;2621953;47;19941;31
2022/11/23 04:21:08;;;;;;;;;;;1.90;99.90;;;;;;2621521;47;19934;31
2022/11/23 04:23:43;;;;;;;;;;;1.90;99.90;;;;;;2603176;54;20807;31
2022/11/23 04:26:23;;;;;;;;;;;1.90;99.90;;;;;;2603034;54;19997;31
2022/11/23 04:28:57;;;;;;;;;;;1.90;99.90;;;;;;2603437;54;19941;31
2022/11/23 04:31:32;;;;;;;;;;;1.90;99.90;;;;;;2621978;47;20737;31
2022/11/23 04:34:19;;;;;;;;;;;1.90;99.90;;;;;;2621786;47;19934;31
2022/11/23 04:36:56;;;;;;;;;;;1.90;99.90;;;;;;2603079;54;20716;31
2022/11/23 04:39:37;;;;;;;;;;;1.90;99.90;;;;;;2621870;47;19935;31
2022/11/23 04:42:34;;;;;;;;;;;1.90;99.90;;;;;;2621612;47;19965;31
2022/11/23 04:45:10;;;;;;;;;;;1.90;99.90;;;;;;2603329;54;19935;31
2022/11/23 04:47:45;;;;;;;;;;;2.00;99.90;;;;;;2621614;47;19934;31
2022/11/23 04:50:24;;;;;;;;;;;1.80;99.90;;;;;;2603221;54;20727;31
2022/11/23 04:53:02;;;;;;;;;;;1.80;99.90;;;;;;2621964;47;19934;31
2022/11/23 04:55:46;;;;;;;;;;;1.90;99.90;;;;;;2603840;54;20796;31
2022/11/23 04:58:25;;;;;;;;;;;1.80;99.90;;;;;;2604059;54;20735;31
2022/11/23 05:01:04;;;;;;;;;;;1.90;99.90;;;;;;2603947;54;20021;31
2022/11/23 05:03:43;;;;;;;;;;;1.90;99.90;;;;;;2622251;46;19942;31
2022/11/23 05:06:22;;;;;;;;;;;1.90;99.90;;;;;;2604018;54;20715;31
2022/11/23 05:08:57;;;;;;;;;;;1.90;99.90;;;;;;2622385;46;19946;31
2022/11/23 05:11:46;;;;;;;;;;;1.90;99.90;;;;;;2622482;46;19965;31
2022/11/23 05:14:21;;;;;;;;;;;1.90;99.90;;;;;;2622577;46;19994;31
2022/11/23 05:16:55;;;;;;;;;;;1.90;99.90;;;;;;2622522;46;20792;31
2022/11/23 05:19:30;;;;;;;;;;;2.00;99.90;;;;;;2622218;46;19942;31
2022/11/23 05:22:07;;;;;;;;;;;2.00;99.90;;;;;;2603750;54;20729;31
2022/11/23 05:24:45;;;;;;;;;;;2.00;99.90;;;;;;2603626;54;19938;31
2022/11/23 05:27:27;;;;;;;;;;;2.00;99.90;;;;;;2622493;46;19941;31
2022/11/23 05:30:02;;;;;;;;;;;2.00;99.90;;;;;;2622330;46;20762;31
2022/11/23 05:32:37;;;;;;;;;;;2.00;99.90;;;;;;2603899;54;19934;31
2022/11/23 05:35:13;;;;;;;;;;;2.00;99.90;;;;;;2620826;46;19941;31
2022/11/23 05:37:52;;;;;;;;;;;2.00;99.90;;;;;;2603045;54;19949;31
2022/11/23 05:40:30;;;;;;;;;;;3.00;99.90;;;;;;2603733;54;19957;31
2022/11/23 05:43:07;;;;;;;;;;;2.00;99.90;;;;;;2622457;46;20805;31
2022/11/23 05:45:42;;;;;;;;;;;2.00;99.90;;;;;;2603867;54;20769;31
2022/11/23 05:48:17;;;;;;;;;;;2.10;99.90;;;;;;2603542;54;20746;31
2022/11/23 05:51:01;;;;;;;;;;;2.10;99.90;;;;;;2603772;54;20699;31
2022/11/23 05:53:48;;;;;;;;;;;2.10;99.90;;;;;;2603736;54;20034;31
2022/11/23 05:56:38;;;;;;;;;;;2.10;99.90;;;;;;2603621;54;20781;31
2022/11/23 05:59:20;;;;;;;;;;;2.10;99.90;;;;;;2622359;46;19942;31
2022/11/23 06:02:03;;;;;;;;;;;2.20;99.90;;;;;;2622233;46;19941;31
2022/11/23 06:04:43;;;;;;;;;;;2.20;99.90;;;;;;2622192;46;19934;31
2022/11/23 06:07:23;;;;;;;;;;;2.20;99.90;;;;;;2603543;54;19950;31
2022/11/23 06:10:08;;;;;;;;;;;2.20;99.90;;;;;;2622376;46;20725;31
2022/11/23 06:12:48;;;;;;;;;;;2.20;99.90;;;;;;2622099;46;19935;31
2022/11/23 06:15:25;;;;;;;;;;;2.20;99.90;;;;;;2622146;46;19941;31
2022/11/23 06:18:01;;;;;;;;;;;2.20;99.90;;;;;;2603751;54;20775;31
2022/11/23 06:20:44;;;;;;;;;;;2.20;99.90;;;;;;2603744;54;20806;31
2022/11/23 06:23:18;;;;;;;;;;;2.30;99.90;;;;;;2602835;54;20758;31
2022/11/23 06:25:55;;;;;;;;;;;2.30;99.90;;;;;;2603601;54;20770;31
2022/11/23 06:28:35;;;;;;;;;;;2.30;99.90;;;;;;2622093;46;19941;31
2022/11/23 06:31:10;;;;;;;;;;;2.30;99.90;;;;;;2622013;46;19941;31
2022/11/23 06:33:44;;;;;;;;;;;2.20;99.90;;;;;;2621993;46;20021;31
2022/11/23 06:36:20;;;;;;;;;;;2.20;99.90;;;;;;2603599;54;19961;31
2022/11/23 06:38:57;;;;;;;;;;;2.20;99.90;;;;;;2603729;54;19941;31
2022/11/23 06:41:35;;;;;;;;;;;2.20;99.90;;;;;;2602704;54;20794;31
2022/11/23 06:44:09;;;;;;;;;;;2.20;99.90;;;;;;2603570;54;19978;31
2022/11/23 06:46:47;;;;;;;;;;;2.10;99.90;;;;;;2621974;46;19935;31
2022/11/23 06:49:24;;;;;;;;;;;2.10;99.90;;;;;;2603708;54;19976;31
2022/11/23 06:52:16;;;;;;;;;;;2.20;99.90;;;;;;2603498;54;19961;31
2022/11/23 06:54:51;;;;;;;;;;;2.20;99.90;;;;;;2603441;54;19958;31
2022/11/23 06:57:28;;;;;;;;;;;2.20;99.90;;;;;;2603470;54;19941;31
2022/11/23 07:00:02;;;;;;;;;;;2.20;99.90;;;;;;2603308;54;19939;31
2022/11/23 07:02:42;;;;;;;;;;;2.10;99.90;;;;;;2621874;46;19941;31
2022/11/23 07:05:18;;;;;;;;;;;2.20;99.90;;;;;;2603499;54;19942;31
2022/11/23 07:07:53;;;;;;;;;;;3.20;99.90;;;;;;2603617;54;19961;31
2022/11/23 07:10:31;;;;;;;;;;;2.20;99.90;;;;;;2621851;46;19946;31
2022/11/23 07:13:10;;;;;;;;;;;2.20;99.90;;;;;;2603599;54;20754;31
2022/11/23 07:15:43;;;;;;;;;;;2.20;99.90;;;;;;2603484;54;19934;31
2022/11/23 07:18:19;;;;;;;;;;;2.20;99.90;;;;;;2603318;54;20788;31
2022/11/23 07:20:59;;;;;;;;;;;2.20;99.90;;;;;;2621732;46;19961;31
2022/11/23 07:23:37;;;;;;;;;;;2.20;99.90;;;;;;2603420;54;20781;31
2022/11/23 07:26:12;;;;;;;;;;;2.20;99.90;;;;;;2621639;46;20046;31
2022/11/23 07:28:51;;;;;;;;;;;2.30;99.90;;;;;;2603468;54;20029;31
2022/11/23 07:31:27;;;;;;;;;;;2.30;99.90;;;;;;2603349;54;19934;31
2022/11/23 07:34:00;;;;;;;;;;;2.30;99.90;;;;;;2621835;46;19935;31
2022/11/23 07:36:36;;;;;;;;;;;2.30;99.90;;;;;;2603414;54;19942;31
2022/11/23 07:39:11;;;;;;;;;;;2.30;99.90;;;;;;2603336;54;19939;31
2022/11/23 07:41:45;;;;;;;;;;;2.40;99.90;;;;;;2603409;54;19941;31
2022/11/23 07:44:46;;;;;;;;;;;2.40;99.90;;;;;;2621901;46;20804;31
2022/11/23 07:47:20;;;;;;;;;;;2.40;99.90;;;;;;2603523;54;20025;31
2022/11/23 07:49:55;;;;;;;;;;;2.50;99.90;;;;;;2621852;47;19957;31
2022/11/23 07:52:29;;;;;;;;;;;2.50;99.90;;;;;;2701928;39;20358;31
2022/11/23 07:55:03;;;;;;;;;;;2.50;99.90;;;;;;2622002;47;19941;31
2022/11/23 07:57:37;;;;;;;;;;;2.60;99.90;;;;;;2602988;54;19948;31
2022/11/23 08:00:17;;;;;;;;;;;2.60;99.90;;;;;;2621816;47;20481;31
2022/11/23 08:02:51;;;;;;;;;;;2.60;99.90;;;;;;2603192;54;19956;31
2022/11/23 08:05:48;;;;;;;;;;;2.60;99.90;;;;;;2621830;47;19960;31
2022/11/23 08:08:22;;;;;;;;;;;2.60;99.90;;;;;;2621782;47;20787;31
2022/11/23 08:10:56;;;;;;;;;;;2.70;99.90;;;;;;2602973;54;20782;31
2022/11/23 08:13:29;;;;;;;;;;;2.60;99.90;;;;;;2603110;54;19998;31
2022/11/23 08:16:04;;;;;;;;;;;2.70;99.90;;;;;;2621454;47;19941;31
2022/11/23 08:18:39;;;;;;;;;;;2.70;99.90;;;;;;2603065;54;19939;31
2022/11/23 08:21:14;;;;;;;;;;;2.70;99.90;;;;;;2603052;54;20823;31
2022/11/23 08:23:51;;;;;;;;;;;2.70;99.90;;;;;;2603182;54;19938;31
2022/11/23 08:26:27;;;;;;;;;;;2.70;99.90;;;;;;2603354;54;19934;31
2022/11/23 08:29:02;;;;;;;;;;;2.70;99.90;;;;;;2603699;54;20050;31
2022/11/23 08:31:40;;;;;;;;;;;2.80;99.90;;;;;;2604062;54;20012;31
2022/11/23 08:34:14;;;;;;;;;;;2.70;99.90;;;;;;2622176;46;19946;31
2022/11/23 08:36:49;;;;;;;;;;;2.80;99.90;;;;;;2603984;54;19942;31
2022/11/23 08:39:21;;;;;;;;;;;2.80;99.90;;;;;;2604225;54;20025;31
2022/11/23 08:41:56;;;;;;;;;;;2.80;99.90;;;;;;2603968;54;20767;31
2022/11/23 08:44:31;;;;;;;;;;;2.80;99.90;;;;;;2603945;54;20764;31
2022/11/23 08:47:08;;;;;;;;;;;2.80;99.90;;;;;;2603834;54;19938;31
2022/11/23 08:49:43;;;;;;;;;;;2.80;99.90;;;;;;2603918;54;19943;31
2022/11/23 08:52:19;;;;;;;;;;;2.80;99.90;;;;;;2630146;46;19938;31
2022/11/23 08:54:54;;;;;;;;;;;2.80;99.90;;;;;;2622403;46;19935;31
2022/11/23 08:57:29;;;;;;;;;;;2.90;99.90;;;;;;2622647;46;19941;31
2022/11/23 09:00:04;;;;;;;;;;;3.80;99.90;;;;;;2622475;46;20818;31
2022/11/23 09:02:41;;;;;;;;;;;2.90;99.90;;;;;;2603815;54;19993;31
2022/11/23 09:05:15;;;;;;;;;;;2.90;99.90;;;;;;2603825;54;19942;31
2022/11/23 09:07:50;;;;;;;;;;;3.00;99.90;;;;;;2603910;54;20789;31
2022/11/23 09:10:24;;;;;;;;;;;3.00;99.90;;;;;;2603634;54;19943;31
2022/11/23 09:12:59;;;;;;;;;;;3.10;99.90;;;;;;2622616;46;20500;31
2022/11/23 09:15:33;;;;;;;;;;;3.10;99.90;;;;;;2604034;54;19935;31
2022/11/23 09:18:13;;;;;;;;;;;3.10;99.90;;;;;;2603969;54;19935;31
2022/11/23 09:20:48;;;;;;;;;;;3.20;99.90;;;;;;2603922;54;19935;31
2022/11/23 09:23:25;;;;;;;;;;;3.20;99.90;;;;;;2603804;54;19934;31
2022/11/23 09:26:00;;;;;;;;;;;3.30;99.90;;;;;;2603736;54;20843;31
2022/11/23 09:28:35;;;;;;;;;;;3.30;99.90;;;;;;2604380;46;20719;31
2022/11/23 09:31:17;;;;;;;;;;;3.30;99.90;;;;;;2603938;54;19935;31
2022/11/23 09:33:57;;;;;;;;;;;3.30;99.90;;;;;;2603891;54;20769;31
2022/11/23 09:36:32;;;;;;;;;;;3.30;99.90;;;;;;2603607;54;19935;31
2022/11/23 09:39:07;;;;;;;;;;;3.30;99.90;;;;;;2603644;54;19935;31
2022/11/23 09:41:47;;;;;;;;;;;3.40;99.90;;;;;;2603717;54;20731;31
2022/11/23 09:44:23;;;;;;;;;;;3.40;99.90;;;;;;2622091;46;19941;31
2022/11/23 09:47:00;;;;;;;;;;;3.40;99.90;;;;;;2603521;54;20784;31
2022/11/23 09:49:39;;;;;;;;;;;3.40;99.90;;;;;;2603893;54;19935;31
2022/11/23 09:52:13;;;;;;;;;;;3.40;99.90;;;;;;2621979;46;19941;31
2022/11/23 09:54:46;;;;;;;;;;;3.40;99.90;;;;;;2603638;54;19935;31
2022/11/23 09:57:22;;;;;;;;;;;3.40;99.90;;;;;;2603715;54;19942;31
2022/11/23 09:59:57;;;;;;;;;;;3.50;99.90;;;;;;2603719;54;20765;31
2022/11/23 10:02:32;;;;;;;;;;;3.50;99.90;;;;;;2622247;46;19941;31
2022/11/23 10:05:09;;;;;;;;;;;3.50;99.90;;;;;;2622333;46;20754;31
2022/11/23 10:07:46;;;;;;;;;;;3.50;99.90;;;;;;2603601;54;19939;31
2022/11/23 10:10:25;;;;;;;;;;;3.50;99.90;;;;;;2622529;46;19935;31
2022/11/23 10:13:02;;;;;;;;;;;3.50;99.90;;;;;;2603877;54;19935;31
2022/11/23 10:15:39;;;;;;;;;;;3.50;99.90;;;;;;2603861;54;20717;31
2022/11/23 10:18:21;;;;;;;;;;;3.50;99.90;;;;;;2621991;46;20013;31
2022/11/23 10:21:01;;;;;;;;;;;3.50;99.90;;;;;;2622002;46;19938;31
2022/11/23 10:23:41;;;;;;;;;;;3.50;99.90;;;;;;2603580;54;19942;31
2022/11/23 10:26:16;;;;;;;;;;;3.50;99.90;;;;;;2603687;54;20100;31
2022/11/23 10:28:51;;;;;;;;;;;3.50;99.90;;;;;;2603773;54;19942;31
2022/11/23 10:31:25;;;;;;;;;;;3.60;99.90;;;;;;2602647;54;20723;31
2022/11/23 10:34:00;;;;;;;;;;;3.60;99.90;;;;;;2622225;46;19941;31
2022/11/23 10:36:39;;;;;;;;;;;3.60;99.90;;;;;;2622263;46;20754;31
2022/11/23 10:39:23;;;;;;;;;;;3.60;99.90;;;;;;2603653;54;20017;31
2022/11/23 10:41:59;;;;;;;;;;;3.70;99.90;;;;;;2603890;54;20810;31
2022/11/23 10:44:33;;;;;;;;;;;3.70;99.90;;;;;;2603695;54;19935;31
2022/11/23 10:47:06;;;;;;;;;;;3.70;99.90;;;;;;2602743;54;22249;31
2022/11/23 10:49:41;;;;;;;;;;;3.70;99.90;;;;;;2603587;54;20746;31
2022/11/23 10:52:29;;;;;;;;;;;3.80;99.90;;;;;;2603187;54;20812;31
2022/11/23 10:55:04;;;;;;;;;;;3.80;99.90;;;;;;2603833;54;19935;31
2022/11/23 10:57:45;;;;;;;;;;;3.80;99.90;;;;;;2603624;54;19954;31
2022/11/23 11:00:19;;;;;;;;;;;3.90;99.90;;;;;;2603407;54;20774;31
2022/11/23 11:03:01;;;;;;;;;;;3.90;99.90;;;;;;2603769;54;19941;31
2022/11/23 11:05:36;;;;;;;;;;;3.90;99.90;;;;;;2603723;46;20726;31
2022/11/23 11:08:34;;;;;;;;;;;4.00;99.90;;;;;;2603524;54;19934;31
2022/11/23 11:11:09;;;;;;;;;;;4.00;99.90;;;;;;2603752;54;19935;31
2022/11/23 11:13:46;;;;;;;;;;;3.90;99.90;;;;;;2621366;46;19989;31
2022/11/23 11:16:22;;;;;;;;;;;4.00;99.90;;;;;;2621981;46;19942;31
2022/11/23 11:18:56;;;;;;;;;;;4.00;99.90;;;;;;2621923;46;19958;31
2022/11/23 11:21:33;;;;;;;;;;;4.00;99.90;;;;;;2603461;54;20705;31
2022/11/23 11:24:15;;;;;;;;;;;4.00;99.90;;;;;;2603573;54;19942;31
2022/11/23 11:26:49;;;;;;;;;;;4.00;99.90;;;;;;2603199;54;20763;31
2022/11/23 11:29:32;;;;;;;;;;;4.10;99.90;;;;;;2603227;54;20807;31
2022/11/23 11:32:13;;;;;;;;;;;4.10;99.90;;;;;;2603319;54;20746;31
2022/11/23 11:34:49;;;;;;;;;;;4.10;99.90;;;;;;2603561;54;19935;31
2022/11/23 11:37:25;;;;;;;;;;;4.10;99.90;;;;;;2603235;54;20756;31
2022/11/23 11:40:04;;;;;;;;;;;4.10;99.90;;;;;;2603441;54;19941;31
2022/11/23 11:42:40;;;;;;;;;;;4.20;99.90;;;;;;2621511;46;19946;31
2022/11/23 11:45:17;;;;;;;;;;;4.20;99.90;;;;;;2604236;46;20799;31
2022/11/23 11:47:53;;;;;;;;;;;4.20;99.90;;;;;;2603153;54;20807;31
2022/11/23 11:50:28;;;;;;;;;;;4.40;99.90;;;;;;2603243;54;19935;31
2022/11/23 11:53:07;;;;;;;;;;;4.40;99.90;;;;;;2603054;54;20819;31
2022/11/23 11:55:55;;;;;;;;;;;4.50;99.90;;;;;;2602658;54;20006;31
2022/11/23 11:58:34;;;;;;;;;;;4.60;99.90;;;;;;2603056;54;19947;31
2022/11/23 12:01:19;;;;;;;;;;;4.60;99.90;;;;;;2603294;54;20704;31
2022/11/23 12:03:55;;;;;;;;;;;4.70;99.90;;;;;;2603948;54;19994;31
2022/11/23 12:06:30;;;;;;;;;;;4.70;99.90;;;;;;2604387;54;20751;31
2022/11/23 12:09:05;;;;;;;;;;;4.70;99.90;;;;;;2622459;46;19946;31
2022/11/23 12:11:39;;;;;;;;;;;4.80;99.90;;;;;;2604132;54;19946;31
2022/11/23 12:14:17;;;;;;;;;;;4.90;99.90;;;;;;2621936;46;19931;31
2022/11/23 12:16:53;;;;;;;;;;;4.90;99.90;;;;;;2622661;46;19935;31
2022/11/23 12:19:48;;;;;;;;;;;4.90;99.90;;;;;;2622206;46;20814;31
2022/11/23 12:22:26;;;;;;;;;;;4.90;99.90;;;;;;2622672;46;20057;31
2022/11/23 12:25:10;;;;;;;;;;;5.00;99.90;;;;;;2603853;54;20025;31
2022/11/23 12:27:48;;;;;;;;;;;5.00;99.90;;;;;;2603557;54;20802;31
2022/11/23 12:30:26;;;;;;;;;;;5.10;99.90;;;;;;2622233;46;20817;31
2022/11/23 12:33:04;;;;;;;;;;;5.20;99.90;;;;;;2603976;54;20793;31
2022/11/23 12:35:50;;;;;;;;;;;5.30;99.90;;;;;;2622451;46;19990;31
2022/11/23 12:38:31;;;;;;;;;;;5.30;99.90;;;;;;2603923;54;20788;31
2022/11/23 12:41:09;;;;;;;;;;;5.30;99.90;;;;;;2604010;54;20006;31
2022/11/23 12:43:47;;;;;;;;;;;5.40;99.90;;;;;;2603859;54;20805;31
2022/11/23 12:46:26;;;;;;;;;;;5.40;99.90;;;;;;2622454;46;19934;31
2022/11/23 12:49:03;;;;;;;;;;;5.40;99.90;;;;;;2603881;54;19961;31
2022/11/23 12:51:40;;;;;;;;;;;5.40;99.90;;;;;;2622534;46;19935;31
2022/11/23 12:54:19;;;;;;;;;;;5.40;99.90;;;;;;2622601;46;20776;31
2022/11/23 12:56:56;;;;;;;;;;;5.40;99.90;;;;;;2603720;54;20045;31
2022/11/23 12:59:32;;;;;;;;;;;5.40;99.90;;;;;;2613710;46;20494;31
2022/11/23 13:02:11;;;;;;;;;;;5.40;99.90;;;;;;2622168;46;19951;31
2022/11/23 13:05:02;;;;;;;;;;;5.40;99.90;;;;;;2604059;54;20749;31
2022/11/23 13:07:45;;;;;;;;;;;5.40;99.90;;;;;;2603887;54;19942;31
2022/11/23 13:10:47;;;;;;;;;;;5.30;99.90;;;;;;2603700;54;19961;31
2022/11/23 13:13:39;;;;;;;;;;;5.20;99.90;;;;;;2603389;54;19957;31
2022/11/23 13:19:05;;;;;;;;;;;5.20;99.90;;;;;;2603538;54;20030;31
2022/11/23 13:21:42;;;;;;;;;;;5.20;99.90;;;;;;2603733;54;20750;31
2022/11/23 13:24:29;;;;;;;;;;;5.20;99.90;;;;;;2602832;54;19935;31
2022/11/23 13:27:19;;;;;;;;;;;5.10;99.90;;;;;;2603479;54;20743;31
2022/11/23 13:29:59;;;;;;;;;;;5.00;99.90;;;;;;2613775;46;19935;31
2022/11/23 13:35:05;;;;;;;;;;;5.00;99.90;;;;;;2603727;54;19941;31
2022/11/23 13:37:47;;;;;;;;;;;4.90;99.90;;;;;;2622136;46;19946;31
2022/11/23 13:40:24;;;;;;;;;;;5.10;99.90;;;;;;2603688;54;20814;31
2022/11/23 13:42:59;;;;;;;;;;;5.10;99.90;;;;;;2603403;54;20798;31
2022/11/23 13:45:35;;;;;;;;;;;5.10;99.90;;;;;;2603610;54;19941;31
2022/11/23 13:48:36;;;;;;;;;;;5.10;99.90;;;;;;2603616;54;19941;31
2022/11/23 13:51:31;;;;;;;;;;;4.90;99.90;;;;;;2603548;54;20800;31
2022/11/23 13:54:08;;;;;;;;;;;4.90;99.90;;;;;;2622110;46;20799;31
2022/11/23 13:56:44;;;;;;;;;;;4.80;99.90;;;;;;2612805;46;20769;31
2022/11/23 13:59:25;;;;;;;;;;;4.80;99.90;;;;;;2603419;46;20801;31
2022/11/23 14:02:03;;;;;;;;;;;4.80;99.90;;;;;;2603777;54;19935;31
2022/11/23 14:04:38;;;;;;;;;;;4.70;99.90;;;;;;2603912;54;19986;31
2022/11/23 14:07:13;;;;;;;;;;;4.70;99.90;;;;;;2603779;54;19935;31
2022/11/23 14:09:51;;;;;;;;;;;4.70;99.90;;;;;;2603504;54;19934;31
2022/11/23 14:12:29;;;;;;;;;;;4.70;99.90;;;;;;2622050;46;20017;31
2022/11/23 14:15:05;;;;;;;;;;;4.60;99.90;;;;;;2603418;54;20797;31
2022/11/23 14:18:00;;;;;;;;;;;4.60;99.90;;;;;;2603698;54;19934;31
2022/11/23 14:20:38;;;;;;;;;;;4.60;99.90;;;;;;2603279;54;19998;31
2022/11/23 14:23:30;;;;;;;;;;;4.60;99.90;;;;;;2621943;46;19935;31
2022/11/23 14:26:10;;;;;;;;;;;4.50;99.90;;;;;;2720482;39;20365;31
2022/11/23 14:28:47;;;;;;;;;;;4.50;99.90;;;;;;2622128;46;19934;31
2022/11/23 14:31:23;;;;;;;;;;;4.50;99.90;;;;;;2603620;54;20659;31
2022/11/23 14:33:57;;;;;;;;;;;4.50;99.90;;;;;;2773602;31;20460;31
2022/11/23 14:36:33;;;;;;;;;;;4.50;99.90;;;;;;2603712;54;20549;31
2022/11/23 14:39:28;;;;;;;;;;;4.50;99.90;;;;;;2773542;31;20485;31
2022/11/23 14:42:05;;;;;;;;;;;4.50;99.90;;;;;;2603350;54;19935;31
2022/11/23 14:44:40;;;;;;;;;;;4.50;99.90;;;;;;2603519;54;20701;31
2022/11/23 14:47:14;;;;;;;;;;;4.40;99.90;;;;;;2622239;46;19953;31
2022/11/23 14:49:52;;;;;;;;;;;4.40;99.90;;;;;;2603319;54;20778;31
2022/11/23 14:52:26;;;;;;;;;;;4.40;99.90;;;;;;2603785;54;19955;31
2022/11/23 14:55:01;;;;;;;;;;;4.30;99.90;;;;;;2603560;54;20728;31
2022/11/23 14:57:39;;;;;;;;;;;4.30;99.90;;;;;;2702027;39;20366;31
2022/11/23 15:00:24;;;;;;;;;;;4.30;99.90;;;;;;2603616;54;20767;31
2022/11/23 15:02:59;;;;;;;;;;;4.30;99.90;;;;;;2603520;54;20795;31
2022/11/23 15:05:47;;;;;;;;;;;4.30;99.90;;;;;;2720311;39;20373;31
2022/11/23 15:08:22;;;;;;;;;;;4.30;99.90;;;;;;2603341;54;20723;31
2022/11/23 15:10:57;;;;;;;;;;;4.30;99.90;;;;;;2603522;54;19930;31
2022/11/23 15:13:35;;;;;;;;;;;4.30;99.90;;;;;;2792074;31;20496;31
2022/11/23 15:16:11;;;;;;;;;;;4.30;99.90;;;;;;2603287;54;19947;31
2022/11/23 15:18:45;;;;;;;;;;;4.20;99.90;;;;;;2603562;54;19934;31
2022/11/23 15:21:20;;;;;;;;;;;4.20;99.90;;;;;;2603205;54;19941;31
2022/11/23 15:24:00;;;;;;;;;;;4.20;99.90;;;;;;2603515;54;19934;31
2022/11/23 15:26:35;;;;;;;;;;;4.20;99.90;;;;;;2621854;46;19934;31
2022/11/23 15:29:34;;;;;;;;;;;4.20;99.90;;;;;;2603245;54;19989;31
2022/11/23 15:32:22;;;;;;;;;;;4.20;99.90;;;;;;2603533;54;19946;31
2022/11/23 15:35:13;;;;;;;;;;;4.20;99.90;;;;;;2603186;54;20802;31
2022/11/23 15:37:47;;;;;;;;;;;4.20;99.90;;;;;;2603180;54;20791;31
2022/11/23 15:40:21;;;;;;;;;;;4.20;99.90;;;;;;2621666;46;19934;31
2022/11/23 15:42:55;;;;;;;;;;;4.20;99.90;;;;;;2621916;46;19947;31
2022/11/23 15:45:44;;;;;;;;;;;4.20;99.90;;;;;;2621825;46;19954;31
2022/11/23 15:48:19;;;;;;;;;;;4.20;99.90;;;;;;2603233;54;20748;31
2022/11/23 15:50:53;;;;;;;;;;;4.20;99.90;;;;;;2603463;54;20831;31